Time;durP1;ratioP1;P1;durP2;ratioP2;P2;SDS_P1;SDS_P2;PMS_P1;PMS_P2;Temp;Humidity;BMP_temperature;BMP_pressure;BME280_temperature;BME280_humidity;BME280_pressure;Samples;Min_cycle;Max_cycle;Signal;HPM_P1;HPM_P2
2021/01/29 00:00:24;;;;;;;6.22;3.78;;;;;;;3.41;78.19;97083.88;5030769;28;20071;-75
2021/01/29 00:02:53;;;;;;;4.82;3.90;;;;;;;3.40;78.45;97060.63;5030300;28;20036;-76
2021/01/29 00:05:25;;;;;;;4.03;3.40;;;;;;;3.38;78.20;97066.31;5029045;28;20398;-76
2021/01/29 00:07:50;;;;;;;6.30;4.72;;;;;;;3.31;78.45;97079.28;5034203;28;20021;-75
2021/01/29 00:10:16;;;;;;;5.15;3.30;;;;;;;3.36;78.38;97078.47;5034427;28;20033;-75
2021/01/29 00:12:42;;;;;;;6.68;4.07;;;;;;;3.23;78.68;97082.50;5035254;28;20063;-75
2021/01/29 00:15:11;;;;;;;8.65;4.03;;;;;;;3.44;78.39;97099.56;5034990;28;20037;-76
2021/01/29 00:17:36;;;;;;;5.95;3.78;;;;;;;3.41;78.40;97087.41;5034508;28;20034;-76
2021/01/29 00:20:05;;;;;;;7.53;4.30;;;;;;;3.45;78.78;97066.03;5034613;28;20029;-75
2021/01/29 00:22:31;;;;;;;6.10;4.38;;;;;;;3.45;78.36;97074.13;5036998;28;20030;-77
2021/01/29 00:24:56;;;;;;;7.20;3.55;;;;;;;3.44;78.39;97067.13;5036118;28;20033;-75
2021/01/29 00:27:21;;;;;;;5.55;4.25;;;;;;;3.42;77.97;97063.88;5037963;28;20037;-75
2021/01/29 00:29:47;;;;;;;;;;;;;;;3.42;78.18;97085.47;5040608;28;20093;-74
2021/01/29 00:32:12;;;;;;;2.88;2.60;;;;;;;3.34;78.50;97097.66;5038789;28;19928;-77
2021/01/29 00:34:37;;;;;;;;;;;;;;;3.37;78.66;97094.41;5039019;28;20028;-76
2021/01/29 00:37:03;;;;;;;3.60;2.95;;;;;;;3.16;78.80;97071.97;5039279;28;19916;-77
2021/01/29 00:39:28;;;;;;;4.70;3.70;;;;;;;3.31;78.54;97070.38;5034739;28;20059;-76
2021/01/29 00:41:53;;;;;;;5.53;3.97;;;;;;;3.27;78.92;97082.78;5039059;28;20045;-76
2021/01/29 00:44:19;;;;;;;6.45;4.40;;;;;;;3.27;78.95;97083.59;5038796;28;20120;-77
2021/01/29 00:46:44;;;;;;;;;;;;;;;3.27;79.04;97104.41;5039120;28;20039;-78
2021/01/29 00:49:10;;;;;;;4.43;3.60;;;;;;;3.23;79.09;97101.44;5038638;28;19913;-77
2021/01/29 00:51:35;;;;;;;4.43;3.38;;;;;;;3.22;79.26;97084.44;5039774;28;20117;-77
2021/01/29 00:54:01;;;;;;;5.63;3.50;;;;;;;3.18;79.81;97087.94;5039393;28;20073;-77
2021/01/29 00:56:26;;;;;;;;;;;;;;;3.21;79.49;97085.50;5038730;28;20022;-77
2021/01/29 00:58:51;;;;;;;4.28;3.28;;;;;;;3.13;79.65;97075.22;5032434;28;19924;-74
2021/01/29 01:01:16;;;;;;;;;;;;;;;3.19;79.57;97103.88;5033393;28;20389;-78
2021/01/29 01:03:42;;;;;;;7.20;4.28;;;;;;;3.13;79.88;97099.53;5031159;28;19924;-74
2021/01/29 01:06:07;;;;;;;;;;;;;;;3.12;79.75;97092.53;5032041;28;20071;-77
2021/01/29 01:08:33;;;;;;;5.03;3.63;;;;;;;3.08;79.74;97087.91;5032948;28;19917;-74
2021/01/29 01:10:58;;;;;;;7.38;3.90;;;;;;;3.09;79.60;97097.66;5032840;28;20046;-77
2021/01/29 01:13:24;;;;;;;;;;;;;;;3.10;79.69;97108.16;5031285;28;20072;-75
2021/01/29 01:15:49;;;;;;;8.90;4.03;;;;;;;3.11;79.47;97107.09;5031029;28;19948;-74
2021/01/29 01:18:15;;;;;;;7.05;4.80;;;;;;;3.20;78.95;97102.78;5032356;28;20037;-77
2021/01/29 01:20:40;;;;;;;;;;;;;;;3.31;78.47;97100.09;5031638;28;20018;-76
2021/01/29 01:23:05;;;;;;;5.90;3.75;;;;;;;3.12;78.33;97081.72;5032089;28;19921;-74
2021/01/29 01:25:31;;;;;;;4.88;4.05;;;;;;;3.23;78.20;97091.44;5032438;28;20029;-76
2021/01/29 01:27:57;;;;;;;9.95;4.78;;;;;;;3.23;78.47;97094.13;5031275;28;20048;-75
2021/01/29 01:30:27;;;;;;;6.68;4.63;;;;;;;3.21;78.07;97093.59;5032509;28;20089;-74
2021/01/29 01:32:53;;;;;;;6.63;4.88;;;;;;;3.20;77.74;97094.69;5033277;28;20127;-76
2021/01/29 01:35:19;;;;;;;6.22;3.85;;;;;;;3.24;77.37;97108.47;5032449;28;20048;-75
2021/01/29 01:37:45;;;;;;;6.82;4.20;;;;;;;3.19;77.00;97092.25;5035611;28;20040;-74
2021/01/29 01:40:12;;;;;;;6.78;4.60;;;;;;;3.08;76.77;97069.81;5035159;28;20021;-75
2021/01/29 01:42:37;;;;;;;5.07;4.10;;;;;;;3.20;76.38;97089.28;5033916;28;20628;-75
2021/01/29 01:45:28;;;;;;;5.65;4.28;;;;;;;3.23;76.20;97094.13;5033720;28;20025;-75
2021/01/29 01:48:16;;;;;;;4.75;3.83;;;;;;;3.22;75.78;97097.94;5032642;28;20037;-76
2021/01/29 01:50:48;;;;;;;5.28;4.40;;;;;;;3.21;75.32;97087.38;5035790;28;20033;-76
2021/01/29 01:53:23;;;;;;;5.00;3.88;;;;;;;3.18;75.23;97096.84;5033741;28;20052;-74
2021/01/29 01:55:58;;;;;;;7.10;5.10;;;;;;;3.17;74.78;97089.81;5030542;28;20034;-74
2021/01/29 01:58:25;;;;;;;6.93;4.80;;;;;;;3.09;74.57;97093.06;5031589;28;20029;-75
2021/01/29 02:00:51;;;;;;;6.07;4.20;;;;;;;3.04;74.64;97076.84;5031275;28;20018;-77
2021/01/29 02:03:23;;;;;;;5.85;4.88;;;;;;;3.04;74.14;97070.63;5030110;28;20514;-76
2021/01/29 02:05:49;;;;;;;5.95;3.88;;;;;;;3.00;74.20;97077.66;5031221;28;20033;-75
2021/01/29 02:08:16;;;;;;;6.15;4.53;;;;;;;2.95;74.42;97080.34;5032036;28;20037;-74
2021/01/29 02:10:41;;;;;;;7.93;4.90;;;;;;;2.93;74.46;97075.22;5031449;28;20049;-75
2021/01/29 02:13:08;;;;;;;6.35;4.35;;;;;;;2.86;74.63;97071.97;5029962;28;20471;-74
2021/01/29 02:15:37;;;;;;;4.95;4.30;;;;;;;2.81;74.71;97063.88;5031516;28;20040;-75
2021/01/29 02:18:08;;;;;;;5.68;4.63;;;;;;;2.79;74.65;97065.22;5031286;28;20033;-76
2021/01/29 02:20:49;;;;;;;6.85;4.13;;;;;;;2.84;74.99;97074.13;5031222;28;20144;-76
2021/01/29 02:23:29;;;;;;;6.10;4.25;;;;;;;2.84;74.61;97068.72;5029832;28;20030;-74
2021/01/29 02:26:16;;;;;;;6.45;4.65;;;;;;;2.81;74.71;97077.38;5029994;28;20080;-75
2021/01/29 02:28:50;;;;;;;6.53;4.50;;;;;;;2.74;75.23;97063.31;5029686;28;20032;-74
2021/01/29 02:31:24;;;;;;;7.38;4.45;;;;;;;2.85;74.74;97064.16;5030423;28;20116;-74
2021/01/29 02:34:26;;;;;;;5.30;4.75;;;;;;;2.82;75.26;97054.66;5031872;28;20114;-75
2021/01/29 02:37:10;;;;;;;9.15;6.00;;;;;;;2.72;75.84;97055.47;5032559;28;20056;-74
2021/01/29 02:39:56;;;;;;;6.07;5.00;;;;;;;2.67;76.20;97055.47;5032943;28;20087;-75
2021/01/29 02:42:48;;;;;;;4.57;3.97;;;;;;;2.64;76.24;97052.47;5032146;28;20050;-74
2021/01/29 02:45:29;;;;;;;7.55;5.07;;;;;;;2.63;76.55;97048.19;5031609;28;20433;-76
2021/01/29 02:48:21;;;;;;;9.02;5.65;;;;;;;2.61;76.41;97055.72;5033071;28;20083;-74
2021/01/29 02:51:16;;;;;;;8.10;5.75;;;;;;;2.43;75.98;97040.03;5031180;28;20037;-75
2021/01/29 02:54:06;;;;;;;6.80;4.88;;;;;;;2.26;76.68;97044.81;5033910;28;20025;-75
2021/01/29 02:56:44;;;;;;;8.75;5.25;;;;;;;2.14;76.83;97042.34;5026795;28;20140;-75
2021/01/29 02:59:48;;;;;;;8.95;4.95;;;;;;;2.08;77.01;97041.53;5029283;28;20033;-74
2021/01/29 03:02:29;;;;;;;6.50;4.53;;;;;;;1.98;76.98;97044.19;5029413;28;20032;-76
2021/01/29 03:05:06;;;;;;;8.63;5.22;;;;;;;1.82;77.42;97047.88;5030803;28;20021;-74
2021/01/29 03:07:59;;;;;;;9.43;4.57;;;;;;;1.69;77.70;97048.38;5029959;28;20108;-75
2021/01/29 03:10:47;;;;;;;10.60;6.13;;;;;;;1.63;77.71;97049.38;5029429;28;20120;-76
2021/01/29 03:13:21;;;;;;;10.75;6.05;;;;;;;1.54;78.08;97045.56;5029390;28;20040;-75
2021/01/29 03:16:00;;;;;;;6.90;5.57;;;;;;;1.50;78.56;97056.03;5030651;28;20143;-75
2021/01/29 03:18:47;;;;;;;7.22;5.25;;;;;;;1.57;78.73;97061.19;5029378;28;20080;-76
2021/01/29 03:21:16;;;;;;;8.00;6.10;;;;;;;1.61;79.10;97062.31;5030657;28;20021;-76
2021/01/29 03:23:48;;;;;;;11.38;6.15;;;;;;;1.78;79.28;97070.22;5030734;28;20482;-76
2021/01/29 03:26:20;;;;;;;7.75;5.50;;;;;;;1.96;79.76;97067.91;5029468;28;20033;-76
2021/01/29 03:28:52;;;;;;;11.65;6.90;;;;;;;2.02;79.38;97058.75;5029571;28;20049;-74
2021/01/29 03:31:21;;;;;;;7.38;5.20;;;;;;;1.84;79.06;97053.84;5030846;28;20144;-75
2021/01/29 03:33:49;;;;;;;8.98;6.10;;;;;;;1.85;78.68;97051.94;5031949;28;20112;-76
2021/01/29 03:36:18;;;;;;;10.00;6.32;;;;;;;1.78;79.12;97062.16;5032925;28;20088;-75
2021/01/29 03:38:53;;;;;;;8.98;6.55;;;;;;;1.74;79.93;97067.25;5034045;28;20044;-76
2021/01/29 03:41:23;;;;;;;12.98;6.30;;;;;;;1.67;80.06;97050.50;5035334;28;20053;-74
2021/01/29 03:44:00;;;;;;;11.02;7.22;;;;;;;1.68;80.24;97049.44;5036352;28;20237;-76
2021/01/29 03:46:44;;;;;;;10.25;7.07;;;;;;;1.75;80.62;97052.72;5035525;28;20025;-79
2021/01/29 03:49:27;;;;;;;11.57;6.20;;;;;;;1.68;81.12;97033.25;5038016;28;20041;-76
2021/01/29 03:52:14;;;;;;;11.90;6.88;;;;;;;1.74;81.73;97045.69;5035778;28;20018;-78
2021/01/29 03:55:14;;;;;;;13.45;6.70;;;;;;;1.81;81.73;97053.53;5032632;28;20445;-74
2021/01/29 03:57:55;;;;;;;12.18;6.25;;;;;;;1.74;80.26;97042.19;5033882;28;20465;-77
2021/01/29 04:00:36;;;;;;;9.60;5.78;;;;;;;1.71;80.21;97043.50;5032639;28;20060;-74
2021/01/29 04:03:07;;;;;;;8.90;5.68;;;;;;;1.64;80.10;97042.94;5033820;28;20153;-76
2021/01/29 04:05:56;;;;;;;6.65;4.90;;;;;;;1.58;80.57;97043.97;5032407;28;20033;-74
2021/01/29 04:08:28;;;;;;;9.00;5.95;;;;;;;1.42;80.10;97040.38;5034076;28;20028;-75
2021/01/29 04:10:57;;;;;;;11.25;6.57;;;;;;;1.54;79.55;97059.03;5032073;28;20044;-75
2021/01/29 04:13:45;;;;;;;8.25;5.15;;;;;;;1.50;78.94;97063.34;5032379;28;20029;-76
2021/01/29 04:16:16;;;;;;;8.77;5.32;;;;;;;1.24;79.18;97034.59;5031920;28;20018;-77
2021/01/29 04:18:52;;;;;;;7.75;5.72;;;;;;;1.41;79.00;97062.19;5032668;28;20025;-76
2021/01/29 04:21:30;;;;;;;8.50;6.22;;;;;;;1.34;79.14;97050.81;5033810;28;20028;-74
2021/01/29 04:24:06;;;;;;;9.52;5.70;;;;;;;1.25;78.80;97050.50;5032012;28;20498;-76
2021/01/29 04:26:44;;;;;;;10.52;5.63;;;;;;;1.24;79.00;97056.13;5033373;28;20037;-75
2021/01/29 04:29:13;;;;;;;9.57;5.20;;;;;;;1.20;78.98;97052.31;5033145;28;20029;-75
2021/01/29 04:31:40;;;;;;;10.68;5.32;;;;;;;1.02;79.45;97054.38;5031915;28;20033;-74
2021/01/29 04:34:16;;;;;;;12.27;5.93;;;;;;;1.04;79.65;97041.44;5032230;28;20513;-76
2021/01/29 04:36:43;;;;;;;8.77;5.00;;;;;;;1.04;80.28;97041.44;5033246;28;20040;-74
2021/01/29 04:39:13;;;;;;;8.45;4.88;;;;;;;1.02;80.30;97045.47;5032474;28;20040;-75
2021/01/29 04:42:07;;;;;;;8.43;5.35;;;;;;;1.10;80.83;97052.28;5029797;28;20049;-74
2021/01/29 04:45:08;;;;;;;11.80;6.65;;;;;;;1.05;80.40;97056.53;5020014;28;20037;-74
2021/01/29 04:47:50;;;;;;;24.77;12.50;;;;;;;1.04;80.18;97051.41;5034369;28;20029;-74
2021/01/29 04:50:50;;;;;;;14.80;9.77;;;;;;;0.98;80.41;97055.94;5017694;28;20033;-75
2021/01/29 04:53:55;;;;;;;13.65;8.55;;;;;;;1.03;81.10;97057.88;5018012;28;20033;-75
2021/01/29 04:56:44;;;;;;;11.25;6.75;;;;;;;1.16;80.70;97078.16;5016053;28;20045;-75
2021/01/29 04:59:47;;;;;;;8.05;6.38;;;;;;;1.20;80.51;97058.53;5011814;28;20029;-74
2021/01/29 05:02:47;;;;;;;11.45;5.72;;;;;;;1.27;80.61;97059.13;5027029;28;20037;-76
2021/01/29 05:05:40;;;;;;;8.95;6.10;;;;;;;1.32;80.81;97061.03;5030944;28;20399;-74
2021/01/29 05:08:31;;;;;;;10.23;6.55;;;;;;;1.40;80.92;97053.31;5032877;28;20100;-78
2021/01/29 05:11:18;;;;;;;12.82;7.30;;;;;;;1.45;81.55;97063.28;5032224;28;20025;-76
2021/01/29 05:14:09;;;;;;;14.45;6.57;;;;;;;1.51;80.82;97044.19;5032290;28;20152;-74
2021/01/29 05:17:08;;;;;;;12.15;7.10;;;;;;;1.53;80.92;97052.03;5032020;28;20060;-73
2021/01/29 05:19:54;;;;;;;10.70;5.18;;;;;;;1.63;81.10;97063.66;5032233;28;20033;-74
2021/01/29 05:22:38;;;;;;;10.48;7.15;;;;;;;1.79;81.31;97066.44;5030669;28;20385;-74
2021/01/29 05:25:41;;;;;;;10.63;7.38;;;;;;;1.63;79.40;97072.84;5030539;28;20037;-76
2021/01/29 05:28:12;;;;;;;7.90;6.10;;;;;;;1.19;78.59;97062.28;5032335;28;20123;-77
2021/01/29 05:31:01;;;;;;;12.45;7.22;;;;;;;0.98;79.21;97055.94;5030410;28;20031;-73
2021/01/29 05:33:43;;;;;;;9.60;5.30;;;;;;;0.94;79.04;97060.19;5031962;28;20021;-73
2021/01/29 05:36:17;;;;;;;8.63;5.28;;;;;;;0.81;78.39;97070.59;5030371;28;20068;-74
2021/01/29 05:39:09;;;;;;;6.47;4.82;;;;;;;0.74;78.58;97068.09;5016316;28;20042;-76
2021/01/29 05:41:57;;;;;;;14.10;5.47;;;;;;;0.89;78.81;97062.03;5011904;28;20092;-75
2021/01/29 05:44:49;;;;;;;20.65;11.52;;;;;;;0.85;78.79;97061.75;5012652;28;20029;-75
2021/01/29 05:47:15;;;;;;;12.30;6.75;;;;;;;0.88;78.80;97050.47;5045181;28;20083;-73
2021/01/29 05:50:07;;;;;;;9.02;5.60;;;;;;;0.91;78.63;97033.78;5013854;28;20443;-74
2021/01/29 05:52:50;;;;;;;8.88;5.43;;;;;;;0.94;78.08;97016.34;5016741;28;20033;-76
2021/01/29 05:55:28;;;;;;;19.88;8.48;;;;;;;0.88;78.33;97018.16;5013022;28;20117;-76
2021/01/29 05:58:28;;;;;;;9.55;6.40;;;;;;;0.84;77.77;97011.69;5013301;28;20132;-74
2021/01/29 06:01:28;;;;;;;21.20;6.05;;;;;;;0.94;77.76;97011.75;5014803;28;20128;-76
2021/01/29 06:04:24;;;;;;;6.93;4.15;;;;;;;0.84;77.74;97003.63;5012199;28;20037;-78
2021/01/29 06:07:27;;;;;;;5.63;4.72;;;;;;;0.90;77.26;97004.47;5031220;28;20044;-73
2021/01/29 06:10:20;;;;;;;8.48;5.20;;;;;;;0.77;77.73;96994.94;5035717;28;20048;-74
2021/01/29 06:13:07;;;;;;;10.02;5.45;;;;;;;0.85;77.88;96999.03;5035206;28;20434;-75
2021/01/29 06:15:56;;;;;;;9.32;5.20;;;;;;;0.82;77.95;96981.50;5036353;28;20074;-75
2021/01/29 06:18:49;;;;;;;7.68;5.90;;;;;;;0.86;77.94;96998.78;5041149;28;20110;-74
2021/01/29 06:21:36;;;;;;;9.15;4.60;;;;;;;0.88;77.69;96996.63;5036773;28;20474;-74
2021/01/29 06:24:01;;;;;;;8.32;4.85;;;;;;;0.88;77.85;96991.25;5041801;28;20035;-76
2021/01/29 06:26:59;;;;;;;6.65;4.72;;;;;;;0.89;77.80;97002.81;5040028;28;20113;-76
2021/01/29 06:29:24;;;;;;;12.85;6.50;;;;;;;0.98;77.98;96996.72;5007686;28;20608;-76
2021/01/29 06:32:08;;;;;;;10.88;5.45;;;;;;;1.06;78.18;97004.31;5030199;28;20034;-76
2021/01/29 06:34:43;;;;;;;14.45;6.57;;;;;;;1.19;78.22;97007.63;5031383;28;20033;-76
2021/01/29 06:37:24;;;;;;;7.90;5.88;;;;;;;1.23;77.98;97011.41;5034888;28;20052;-77
2021/01/29 06:40:02;;;;;;;10.10;5.70;;;;;;;1.30;77.82;97006.63;5033414;28;20037;-75
2021/01/29 06:42:46;;;;;;;9.40;6.30;;;;;;;1.31;78.02;97006.38;5036349;28;20167;-75
2021/01/29 06:45:14;;;;;;;6.38;4.65;;;;;;;1.36;77.99;97008.28;5035735;28;20032;-76
2021/01/29 06:48:10;;;;;;;8.95;5.55;;;;;;;1.37;77.90;97007.22;5033383;28;20013;-77
2021/01/29 06:51:08;;;;;;;12.38;6.50;;;;;;;1.38;78.49;97006.16;5044417;28;20028;-77
2021/01/29 06:53:52;;;;;;;10.38;5.22;;;;;;;1.45;78.22;97007.53;5037524;28;20431;-78
2021/01/29 06:56:42;;;;;;;6.88;4.93;;;;;;;1.40;78.15;97014.78;5030277;28;20037;-76
2021/01/29 06:59:23;;;;;;;8.48;5.35;;;;;;;1.42;78.32;97018.81;5023281;28;20096;-77
2021/01/29 07:02:10;;;;;;;8.05;6.38;;;;;;;1.33;78.66;97009.63;5023201;28;20478;-76
2021/01/29 07:04:42;;;;;;;11.98;7.28;;;;;;;1.38;79.05;97022.31;5027489;28;20063;-77
2021/01/29 07:07:13;;;;;;;9.25;6.40;;;;;;;1.25;78.89;97028.97;5019734;28;20060;-77
2021/01/29 07:10:00;;;;;;;10.30;6.40;;;;;;;1.25;79.16;97033.53;5051926;28;20370;-76
2021/01/29 07:12:49;;;;;;;12.40;6.97;;;;;;;1.21;79.49;97025.16;5053037;28;20159;-76
2021/01/29 07:15:38;;;;;;;14.27;6.50;;;;;;;1.17;79.68;97013.28;5043865;28;20086;-84
2021/01/29 07:18:20;;;;;;;7.38;5.50;;;;;;;1.13;79.46;96995.22;5033732;28;20026;-78
2021/01/29 07:21:07;;;;;;;12.85;7.05;;;;;;;1.19;79.79;97011.13;5043242;28;20402;-77
2021/01/29 07:24:11;;;;;;;9.77;6.57;;;;;;;1.23;80.24;97000.66;5034696;28;20040;-78
2021/01/29 07:26:51;;;;;;;12.18;7.70;;;;;;;1.29;80.10;96994.22;5041631;28;20036;-75
2021/01/29 07:29:31;;;;;;;15.35;8.77;;;;;;;1.40;80.34;96998.63;5035687;28;20120;-75
2021/01/29 07:32:11;;;;;;;17.30;9.07;;;;;;;1.44;80.09;96987.03;5034934;28;20155;-75
2021/01/29 07:34:54;;;;;;;12.93;8.88;;;;;;;1.65;81.43;96992.53;5032763;28;20126;-77
2021/01/29 07:37:29;;;;;;;14.63;9.23;;;;;;;1.80;80.75;96985.34;5035509;28;20367;-75
2021/01/29 07:40:06;;;;;;;18.25;8.82;;;;;;;1.79;80.47;96975.63;5053910;28;20048;-76
2021/01/29 07:42:47;;;;;;;13.57;7.85;;;;;;;2.20;82.17;96964.97;5035547;28;20050;-76
2021/01/29 07:45:32;;;;;;;11.02;7.38;;;;;;;2.37;80.24;96946.66;5031465;28;20080;-76
2021/01/29 07:48:35;;;;;;;13.60;7.03;;;;;;;3.04;78.33;96930.16;5035582;28;20031;-77
2021/01/29 07:51:22;;;;;;;16.83;8.02;;;;;;;2.51;77.57;96915.34;5052506;28;20402;-77
2021/01/29 07:54:06;;;;;;;15.95;8.00;;;;;;;2.43;79.20;96905.13;5040003;28;20018;-77
2021/01/29 07:57:05;;;;;;;12.88;8.57;;;;;;;2.34;79.65;96901.34;5033652;28;20380;-74
2021/01/29 07:59:49;;;;;;;12.10;7.05;;;;;;;2.27;78.77;96901.59;5026377;28;20083;-76
2021/01/29 08:02:47;;;;;;;13.18;9.90;;;;;;;2.14;79.66;96900.22;5030461;28;20362;-79
2021/01/29 08:05:22;;;;;;;17.17;8.68;;;;;;;2.09;79.94;96889.44;5032457;28;20018;-75
2021/01/29 08:08:10;;;;;;;18.92;8.25;;;;;;;2.16;80.55;96894.59;5036667;28;20021;-77
2021/01/29 08:10:39;;;;;;;13.77;8.77;;;;;;;2.23;80.40;96868.13;5035360;28;20391;-75
2021/01/29 08:13:27;;;;;;;12.65;7.78;;;;;;;2.52;80.38;96881.91;5033144;28;20372;-76
2021/01/29 08:16:31;;;;;;;14.52;9.85;;;;;;;2.78;79.61;96872.72;5010926;28;20037;-77
2021/01/29 08:19:06;;;;;;;12.82;8.98;;;;;;;2.90;78.42;96886.72;5021490;28;20042;-76
2021/01/29 08:21:48;;;;;;;15.23;7.93;;;;;;;3.06;77.90;96891.03;5030989;28;20398;-75
2021/01/29 08:24:25;;;;;;;13.10;8.68;;;;;;;3.06;77.53;96904.53;5028485;28;20076;-75
2021/01/29 08:27:16;;;;;;;10.25;7.80;;;;;;;3.19;77.20;96924.75;5028915;28;20566;-76
2021/01/29 08:30:01;;;;;;;10.30;7.65;;;;;;;3.13;76.60;96894.22;5033421;28;20114;-74
2021/01/29 08:32:38;;;;;;;11.40;7.55;;;;;;;3.33;76.06;96914.16;5030944;28;20138;-76
2021/01/29 08:35:03;;;;;;;11.52;6.53;;;;;;;3.23;74.31;96932.03;5030499;28;20064;-75
2021/01/29 08:37:41;;;;;;;8.65;6.82;;;;;;;3.23;73.53;96933.91;5032015;28;20049;-76
2021/01/29 08:40:18;;;;;;;11.63;6.88;;;;;;;3.20;73.50;96942.56;5032906;28;20028;-78
2021/01/29 08:42:57;;;;;;;9.20;6.55;;;;;;;3.14;73.81;96940.97;5033503;28;20053;-76
2021/01/29 08:45:55;;;;;;;11.13;6.60;;;;;;;3.17;75.56;96937.72;5034136;28;20034;-75
2021/01/29 08:48:36;;;;;;;9.13;6.90;;;;;;;3.17;74.90;96927.72;5028674;28;20037;-74
2021/01/29 08:51:21;;;;;;;10.25;7.00;;;;;;;3.11;75.28;96922.59;5034179;28;21131;-76
2021/01/29 08:54:05;;;;;;;13.57;9.00;;;;;;;3.07;76.37;96918.84;5032795;28;20479;-74
2021/01/29 08:56:31;;;;;;;12.32;6.47;;;;;;;3.11;77.52;96915.31;5030016;28;20025;-76
2021/01/29 08:59:07;;;;;;;10.60;6.57;;;;;;;3.06;78.36;96925.31;5030051;28;20036;-79
2021/01/29 09:01:32;;;;;;;11.68;7.55;;;;;;;2.99;79.24;96939.09;5035378;28;20021;-76
2021/01/29 09:04:22;;;;;;;;;;;;;;;2.93;80.07;96953.69;5043571;28;20087;-76
2021/01/29 09:06:50;;;;;;;10.93;6.82;;;;;;;2.95;82.32;96939.91;5036355;28;20378;-75
2021/01/29 09:09:30;;;;;;;13.50;8.35;;;;;;;2.98;83.79;96929.38;5034669;28;20029;-75
2021/01/29 09:12:03;;;;;;;12.63;8.98;;;;;;;2.97;85.41;96916.97;5033778;28;20097;-77
2021/01/29 09:14:37;;;;;;;15.77;9.68;;;;;;;3.16;86.20;96923.41;5039031;28;20559;-76
2021/01/29 09:17:13;;;;;;;16.95;9.13;;;;;;;3.29;86.69;96926.63;5039445;28;20041;-77
2021/01/29 09:19:42;;;;;;;;;;;;;;;3.34;86.40;96927.41;5074752;28;20501;-74
2021/01/29 09:22:24;;;;;;;14.80;9.18;;;;;;;3.33;86.07;96923.09;5041406;28;19905;-81
2021/01/29 09:25:18;;;;;;;13.18;8.93;;;;;;;3.37;85.51;96924.16;5041593;28;20037;-75
2021/01/29 09:28:02;;;;;;;13.15;8.60;;;;;;;3.37;84.92;96923.34;5037551;28;20041;-74
2021/01/29 09:30:48;;;;;;;14.55;10.57;;;;;;;3.18;84.75;96907.75;5043504;28;20032;-75
2021/01/29 09:33:16;;;;;;;14.18;8.57;;;;;;;3.33;85.56;96927.69;5050245;28;20107;-77
2021/01/29 09:35:56;;;;;;;16.23;10.25;;;;;;;3.42;85.83;96929.53;5045709;28;20037;-80
2021/01/29 09:38:28;;;;;;;13.93;9.45;;;;;;;3.52;86.79;96934.94;5029256;28;20565;-75
2021/01/29 09:41:04;;;;;;;23.02;14.73;;;;;;;3.55;87.39;96928.97;5029769;28;20033;-76
2021/01/29 09:43:42;;;;;;;16.88;10.25;;;;;;;3.68;88.06;96930.28;5028447;28;20060;-76
2021/01/29 09:46:08;;;;;;;14.93;9.82;;;;;;;3.69;88.34;96931.91;5028719;28;20029;-74
2021/01/29 09:48:36;;;;;;;16.48;10.30;;;;;;;3.61;88.68;96905.41;5028778;28;20018;-76
2021/01/29 09:51:27;;;;;;;16.63;9.25;;;;;;;3.73;89.22;96908.59;5030338;28;20060;-76
2021/01/29 09:54:00;;;;;;;13.40;8.63;;;;;;;3.86;89.48;96899.09;5030077;28;20018;-75
2021/01/29 09:56:29;;;;;;;17.08;10.05;;;;;;;3.82;89.85;96904.28;5033505;28;20021;-79
2021/01/29 09:58:57;;;;;;;13.40;9.25;;;;;;;3.86;90.14;96905.31;5031172;28;20446;-76
2021/01/29 10:01:24;;;;;;;12.13;9.60;;;;;;;3.84;90.14;96910.19;5040723;28;20036;-76
2021/01/29 10:04:15;;;;;;;14.73;9.63;;;;;;;3.83;90.12;96900.47;5049941;28;20033;-76
2021/01/29 10:06:58;;;;;;;12.23;7.60;;;;;;;3.77;90.30;96909.69;5050858;28;20033;-75
2021/01/29 10:09:28;;;;;;;15.30;9.43;;;;;;;3.60;91.20;96884.91;5041798;28;20029;-77
2021/01/29 10:12:11;;;;;;;12.35;8.27;;;;;;;3.66;91.95;96891.91;5033550;28;20025;-79
2021/01/29 10:14:53;;;;;;;12.40;8.43;;;;;;;3.72;92.37;96885.38;5032520;28;20482;-75
2021/01/29 10:17:31;;;;;;;14.02;8.98;;;;;;;3.72;92.83;96890.78;5029744;28;20033;-77
2021/01/29 10:20:04;;;;;;;11.75;8.95;;;;;;;3.80;93.04;96890.19;5028681;28;20029;-76
2021/01/29 10:22:54;;;;;;;12.55;8.05;;;;;;;3.81;93.21;96883.72;5027888;28;20030;-76
2021/01/29 10:25:29;;;;;;;13.13;8.05;;;;;;;3.89;93.37;96885.81;5027762;28;20025;-78
2021/01/29 10:28:17;;;;;;;12.32;8.70;;;;;;;3.89;93.98;96869.59;5029504;28;20029;-76
2021/01/29 10:30:43;;;;;;;12.27;8.38;;;;;;;3.84;94.72;96869.63;5028555;28;20607;-75
2021/01/29 10:33:18;;;;;;;14.98;8.48;;;;;;;3.81;95.20;96861.25;5029473;28;20068;-76
2021/01/29 10:36:04;;;;;;;14.10;10.10;;;;;;;3.82;95.37;96854.78;5027929;28;20029;-75
2021/01/29 10:38:52;;;;;;;13.05;10.90;;;;;;;3.84;95.28;96842.59;5020499;28;20037;-75
2021/01/29 10:41:39;;;;;;;15.05;9.10;;;;;;;3.87;95.78;96843.91;5026769;28;20091;-75
2021/01/29 10:44:12;;;;;;;13.10;10.25;;;;;;;3.89;95.47;96839.84;5027321;28;20528;-75
2021/01/29 10:46:53;;;;;;;14.13;9.07;;;;;;;3.86;95.21;96837.69;5026969;28;20113;-77
2021/01/29 10:49:38;;;;;;;14.35;8.60;;;;;;;3.83;95.78;96832.84;5028519;28;20036;-76
2021/01/29 10:52:29;;;;;;;14.68;10.05;;;;;;;3.79;95.76;96827.19;5008009;28;20076;-75
2021/01/29 10:54:55;;;;;;;15.05;8.60;;;;;;;3.82;96.21;96815.03;5007610;28;20030;-74
2021/01/29 10:57:23;;;;;;;15.52;9.45;;;;;;;3.77;96.83;96818.56;5009278;28;20040;-75
2021/01/29 11:00:05;;;;;;;11.43;8.82;;;;;;;3.85;97.36;96819.88;5011783;28;20041;-76
2021/01/29 11:02:34;;;;;;;12.40;7.85;;;;;;;3.98;98.02;96808.41;5035320;28;20040;-75
2021/01/29 11:05:13;;;;;;;15.23;9.50;;;;;;;3.90;98.79;96808.19;5036045;28;20083;-74
2021/01/29 11:07:44;;;;;;;15.48;10.40;;;;;;;3.85;99.40;96800.13;5033706;28;20028;-76
2021/01/29 11:10:20;;;;;;;15.73;9.68;;;;;;;3.98;99.45;96797.56;5034896;28;20044;-76
2021/01/29 11:13:06;;;;;;;15.05;9.82;;;;;;;4.10;99.04;96800.72;5034996;28;20038;-75
2021/01/29 11:15:41;;;;;;;14.32;9.32;;;;;;;4.01;99.65;96791.59;5072212;28;20037;-74
2021/01/29 11:18:29;;;;;;;11.88;8.43;;;;;;;4.11;100.00;96801.53;5034930;28;20029;-76
2021/01/29 11:21:12;;;;;;;16.13;9.73;;;;;;;4.06;100.00;96788.88;5040863;28;20060;-76
2021/01/29 11:23:56;;;;;;;15.70;8.75;;;;;;;4.08;100.00;96786.69;5034614;28;20049;-75
2021/01/29 11:26:28;;;;;;;12.73;9.38;;;;;;;4.01;100.00;96780.78;5041943;28;20025;-74
2021/01/29 11:29:20;;;;;;;11.45;8.80;;;;;;;4.02;100.00;96785.13;5037156;28;20045;-76
2021/01/29 11:32:09;;;;;;;14.60;9.65;;;;;;;4.00;100.00;96783.78;5038203;28;20283;-73
2021/01/29 11:34:36;;;;;;;16.80;10.15;;;;;;;3.93;100.00;96770.59;5038350;28;20024;-77
2021/01/29 11:37:13;;;;;;;11.90;8.60;;;;;;;4.07;100.00;96779.66;5038822;28;20032;-73
2021/01/29 11:40:02;;;;;;;11.25;7.75;;;;;;;4.13;100.00;96789.38;5036783;28;20522;-76
2021/01/29 11:43:13;;;;;;;15.35;9.45;;;;;;;4.12;100.00;96787.75;5035069;28;20041;-76
2021/01/29 11:45:47;;;;;;;12.30;8.15;;;;;;;4.17;100.00;96774.16;5004642;28;20439;-76
2021/01/29 11:48:20;;;;;;;57.38;27.83;;;;;;;4.29;100.00;96763.00;5039165;28;20025;-77
2021/01/29 11:51:09;;;;;;;34.35;19.40;;;;;;;4.32;100.00;96774.03;5037318;28;20035;-75
2021/01/29 11:53:48;;;;;;;20.52;11.70;;;;;;;4.30;100.00;96765.41;5033097;28;20025;-75
2021/01/29 11:56:20;;;;;;;34.58;20.25;;;;;;;4.31;100.00;96753.50;5032495;28;20111;-75
2021/01/29 11:58:51;;;;;;;11.80;7.78;;;;;;;4.40;100.00;96759.09;5038534;28;20104;-75
2021/01/29 12:01:20;;;;;;;8.82;6.47;;;;;;;4.38;100.00;96757.75;5032684;28;20029;-76
2021/01/29 12:04:05;;;;;;;11.25;7.13;;;;;;;4.35;100.00;96752.91;5035701;28;20049;-73
2021/01/29 12:06:35;;;;;;;9.20;6.72;;;;;;;4.40;100.00;96748.25;5036208;28;20041;-75
2021/01/29 12:09:04;;;;;;;9.32;7.05;;;;;;;4.45;100.00;96752.81;5037064;28;20125;-75
2021/01/29 12:11:59;;;;;;;9.95;6.40;;;;;;;4.40;100.00;96740.13;5035576;28;20494;-74
2021/01/29 12:14:33;;;;;;;9.98;6.97;;;;;;;4.48;100.00;96747.63;5033161;28;20021;-75
2021/01/29 12:17:04;;;;;;;10.07;7.45;;;;;;;4.60;100.00;96747.25;5035059;28;20030;-74
2021/01/29 12:19:37;;;;;;;8.13;6.25;;;;;;;4.57;100.00;96745.94;5044132;28;20063;-74
2021/01/29 12:22:08;;;;;;;7.10;6.20;;;;;;;4.59;100.00;96753.75;5037604;28;20047;-76
2021/01/29 12:24:46;;;;;;;7.15;5.78;;;;;;;4.61;100.00;96749.66;5041609;28;20028;-75
2021/01/29 12:27:48;;;;;;;8.60;5.57;;;;;;;4.66;100.00;96735.28;5038294;28;20071;-73
2021/01/29 12:30:38;;;;;;;8.55;6.50;;;;;;;4.68;100.00;96736.59;5033884;28;20036;-77
2021/01/29 12:33:22;;;;;;;9.02;6.78;;;;;;;4.72;100.00;96726.00;5036587;28;20495;-74